createdAt,value
2017-03-13T00:00:51.438Z,1014.38
2017-03-13T00:02:01.719Z,1014.44
2017-03-13T00:03:12.001Z,1014.43
2017-03-13T00:04:22.046Z,1014.42
2017-03-13T00:05:31.575Z,1014.46
2017-03-13T00:06:41.452Z,1014.42
2017-03-13T00:07:52.122Z,1014.5
2017-03-13T00:09:02.430Z,1014.51
2017-03-13T00:10:12.893Z,1014.47
2017-03-13T00:11:22.800Z,1014.53
2017-03-13T00:12:32.688Z,1014.55
2017-03-13T00:13:42.992Z,1014.54
2017-03-13T00:14:53.674Z,1014.54
2017-03-13T00:16:04.513Z,1014.59
2017-03-13T00:17:14.413Z,1014.56
2017-03-13T00:18:24.710Z,1014.58
2017-03-13T00:19:34.991Z,1014.65
2017-03-13T00:20:44.870Z,1014.62
2017-03-13T00:21:55.699Z,1014.62
2017-03-13T00:23:05.606Z,1014.64
2017-03-13T00:24:15.880Z,1014.59
2017-03-13T00:25:26.176Z,1014.63
2017-03-13T00:26:36.464Z,1014.63
2017-03-13T00:27:46.569Z,1014.62
2017-03-13T00:28:57.267Z,1014.63
2017-03-13T00:30:07.189Z,1014.63
2017-03-13T00:31:17.087Z,1014.66
2017-03-13T00:32:27.767Z,1014.69
2017-03-13T00:33:38.663Z,1014.71
2017-03-13T00:34:49.323Z,1014.75
2017-03-13T00:35:59.597Z,1014.73
2017-03-13T00:37:09.900Z,1014.74
2017-03-13T00:38:20.210Z,1014.73
2017-03-13T00:39:30.636Z,1014.74
2017-03-13T00:40:40.539Z,1014.75
2017-03-13T00:41:49.647Z,1014.75
2017-03-13T00:42:59.155Z,1014.81
2017-03-13T00:44:09.474Z,1014.81
2017-03-13T00:45:19.957Z,1014.84
2017-03-13T00:46:29.858Z,1014.82
2017-03-13T00:47:40.511Z,1014.82
2017-03-13T00:48:50.418Z,1014.87
2017-03-13T00:50:01.089Z,1014.86
2017-03-13T00:51:11.543Z,1014.86
2017-03-13T00:52:22.239Z,1014.86
2017-03-13T00:53:32.910Z,1014.83
2017-03-13T00:54:43.589Z,1014.81
2017-03-13T00:55:54.291Z,1014.86
2017-03-13T00:57:04.691Z,1014.83
2017-03-13T00:58:14.633Z,1014.88
2017-03-13T00:59:24.574Z,1014.89
2017-03-13T01:00:34.873Z,1014.92
2017-03-13T01:01:44.794Z,1014.94
2017-03-13T01:02:55.585Z,1014.96
2017-03-13T01:04:05.759Z,1014.98
2017-03-13T01:05:15.252Z,1015.02
2017-03-13T01:06:25.525Z,1015.02
2017-03-13T01:07:35.802Z,1015.01
2017-03-13T01:08:46.186Z,1015.02
2017-03-13T01:09:56.089Z,1014.98
2017-03-13T01:11:06.009Z,1014.99
2017-03-13T01:12:16.295Z,1015
2017-03-13T01:13:26.988Z,1015.03
2017-03-13T01:14:36.985Z,1015.03
2017-03-13T01:15:46.891Z,1015.08
2017-03-13T01:16:57.163Z,1015.07
2017-03-13T01:18:07.458Z,1015.08
2017-03-13T01:19:17.746Z,1015.1
2017-03-13T01:20:28.104Z,1015.1
2017-03-13T01:21:39.086Z,1015.16
2017-03-13T01:22:49.759Z,1015.15
2017-03-13T01:24:00.095Z,1015.17
2017-03-13T01:25:10.390Z,1015.19
2017-03-13T01:26:20.911Z,1015.2
2017-03-13T01:27:31.191Z,1015.19
2017-03-13T01:28:40.700Z,1015.21
2017-03-13T01:29:50.218Z,1015.25
2017-03-13T01:31:00.519Z,1015.24
2017-03-13T01:32:11.376Z,1015.25
2017-03-13T01:33:21.270Z,1015.28
2017-03-13T01:34:31.545Z,1015.24
2017-03-13T01:35:41.440Z,1015.28
2017-03-13T01:36:52.128Z,1015.28
2017-03-13T01:38:02.163Z,1015.23
2017-03-13T01:39:12.452Z,1015.28
2017-03-13T01:40:23.128Z,1015.24
2017-03-13T01:41:32.649Z,1015.27
2017-03-13T01:42:43.306Z,1015.29
2017-03-13T01:43:53.362Z,1015.27
2017-03-13T01:45:04.023Z,1015.29
2017-03-13T01:46:14.364Z,1015.35
2017-03-13T01:47:25.051Z,1015.31
2017-03-13T01:48:34.951Z,1015.36
2017-03-13T01:49:44.605Z,1015.37
2017-03-13T01:50:55.331Z,1015.37
2017-03-13T01:52:06.016Z,1015.39
2017-03-13T01:53:16.738Z,1015.4
2017-03-13T01:54:27.031Z,1015.4
2017-03-13T01:55:37.662Z,1015.41
2017-03-13T01:56:47.963Z,1015.4
2017-03-13T01:57:58.655Z,1015.44
2017-03-13T01:59:08.554Z,1015.45
2017-03-13T02:00:19.231Z,1015.43
2017-03-13T02:01:30.345Z,1015.42
2017-03-13T02:02:41.009Z,1015.49
2017-03-13T02:03:51.273Z,1015.45
2017-03-13T02:05:01.558Z,1015.43
2017-03-13T02:06:12.225Z,1015.42
2017-03-13T02:07:22.278Z,1015.49
2017-03-13T02:08:32.979Z,1015.42
2017-03-13T02:09:42.852Z,1015.44
2017-03-13T02:10:53.135Z,1015.46
2017-03-13T02:12:03.797Z,1015.41
2017-03-13T02:13:13.955Z,1015.4
2017-03-13T02:14:24.658Z,1015.41
2017-03-13T02:15:34.564Z,1015.37
2017-03-13T02:16:44.471Z,1015.41
2017-03-13T02:17:54.759Z,1015.41
2017-03-13T02:19:05.580Z,1015.39
2017-03-13T02:20:16.242Z,1015.43
2017-03-13T02:21:26.910Z,1015.42
2017-03-13T02:22:36.803Z,1015.44
2017-03-13T02:23:47.482Z,1015.44
2017-03-13T02:24:57.905Z,1015.44
2017-03-13T02:26:07.805Z,1015.46
2017-03-13T02:27:18.470Z,1015.49
2017-03-13T02:28:28.747Z,1015.47
2017-03-13T02:32:11.544Z,1015.46
2017-03-13T02:33:21.429Z,1015.47
2017-03-13T02:34:31.304Z,1015.51
2017-03-13T02:35:42.003Z,1015.5
2017-03-13T02:36:51.526Z,1015.48
2017-03-13T02:38:02.329Z,1015.46
2017-03-13T02:39:12.998Z,1015.48
2017-03-13T02:40:23.301Z,1015.5
2017-03-13T02:41:33.260Z,1015.5
2017-03-13T02:42:43.143Z,1015.54
2017-03-13T02:43:53.184Z,1015.57
2017-03-13T02:45:03.455Z,1015.56
2017-03-13T02:46:14.102Z,1015.58
2017-03-13T02:47:24.368Z,1015.57
2017-03-13T02:48:34.659Z,1015.64
2017-03-13T02:49:45.100Z,1015.65
2017-03-13T02:50:55.416Z,1015.67
2017-03-13T02:52:05.305Z,1015.71
2017-03-13T02:53:15.184Z,1015.69
2017-03-13T02:54:25.483Z,1015.7
2017-03-13T02:55:35.946Z,1015.75
2017-03-13T02:56:46.616Z,1015.75
2017-03-13T02:57:57.270Z,1015.73
2017-03-13T02:59:07.926Z,1015.77
2017-03-13T03:00:18.657Z,1015.76
2017-03-13T03:01:28.662Z,1015.77
2017-03-13T03:02:38.165Z,1015.86
2017-03-13T03:03:48.849Z,1015.83
2017-03-13T03:04:59.557Z,1015.87
2017-03-13T03:06:09.831Z,1015.88
2017-03-13T03:07:20.207Z,1015.89
2017-03-13T03:08:30.494Z,1015.9
2017-03-13T03:09:40.802Z,1015.94
2017-03-13T03:10:50.294Z,1015.89
2017-03-13T03:12:00.948Z,1015.91
2017-03-13T03:13:10.948Z,1015.94
2017-03-13T03:14:21.628Z,1015.92
2017-03-13T03:15:31.134Z,1015.93
2017-03-13T03:16:41.826Z,1015.97
2017-03-13T03:17:52.117Z,1015.98
2017-03-13T03:19:02.499Z,1016.01
2017-03-13T03:20:13.175Z,1015.97
2017-03-13T03:21:23.060Z,1015.99
2017-03-13T03:22:33.338Z,1015.95
2017-03-13T03:23:43.218Z,1015.99
2017-03-13T03:24:53.615Z,1015.96
2017-03-13T03:26:03.922Z,1015.98
2017-03-13T03:27:14.238Z,1015.99
2017-03-13T03:28:24.518Z,1016.03
2017-03-13T03:29:34.800Z,1015.98
2017-03-13T03:30:45.213Z,1015.95
2017-03-13T03:31:55.531Z,1016.01
2017-03-13T03:33:06.206Z,1015.94
2017-03-13T03:34:16.873Z,1015.96
2017-03-13T03:35:27.194Z,1015.96
2017-03-13T03:36:36.849Z,1016.02
2017-03-13T03:37:46.787Z,1016.03
2017-03-13T03:38:57.083Z,1016.07
2017-03-13T03:40:07.756Z,1016.04
2017-03-13T03:41:17.627Z,1016.06
2017-03-13T03:42:28.437Z,1016.08
2017-03-13T03:43:39.115Z,1016.06
2017-03-13T03:44:49.398Z,1016.05
2017-03-13T03:45:59.296Z,1016.09
2017-03-13T03:47:09.593Z,1016.08
2017-03-13T03:48:19.656Z,1016.09
2017-03-13T03:49:29.929Z,1016.12
2017-03-13T03:50:39.811Z,1016.12
2017-03-13T03:51:49.298Z,1016.12
2017-03-13T03:52:58.848Z,1016.11
2017-03-13T03:54:09.303Z,1016.15
2017-03-13T03:55:19.176Z,1016.18
2017-03-13T03:56:29.850Z,1016.24
2017-03-13T03:57:40.149Z,1016.25
2017-03-13T03:58:50.446Z,1016.3
2017-03-13T04:00:01.272Z,1016.35
2017-03-13T04:01:11.950Z,1016.33
2017-03-13T04:02:22.627Z,1016.37
2017-03-13T04:03:32.920Z,1016.37
2017-03-13T04:04:42.827Z,1016.35
2017-03-13T04:05:53.241Z,1016.4
2017-03-13T04:07:03.128Z,1016.36
2017-03-13T04:08:12.627Z,1016.39
2017-03-13T04:09:23.302Z,1016.39
2017-03-13T04:10:33.999Z,1016.4
2017-03-13T04:11:44.811Z,1016.39
2017-03-13T04:12:54.715Z,1016.44
2017-03-13T04:14:04.598Z,1016.45
2017-03-13T04:15:14.468Z,1016.45
2017-03-13T04:16:24.754Z,1016.49
2017-03-13T04:17:35.189Z,1016.5
2017-03-13T04:18:45.509Z,1016.52
2017-03-13T04:19:55.778Z,1016.52
2017-03-13T04:21:06.061Z,1016.47
2017-03-13T04:22:16.724Z,1016.54
2017-03-13T04:23:27.164Z,1016.51
2017-03-13T04:24:37.844Z,1016.49
2017-03-13T04:25:48.534Z,1016.49
2017-03-13T04:26:58.826Z,1016.49
2017-03-13T04:28:09.493Z,1016.49
2017-03-13T04:29:19.702Z,1016.45
2017-03-13T04:30:29.588Z,1016.46
2017-03-13T04:31:39.483Z,1016.48
2017-03-13T04:32:49.762Z,1016.47
2017-03-13T04:34:00.437Z,1016.54
2017-03-13T04:35:11.245Z,1016.51
2017-03-13T04:36:21.915Z,1016.5
2017-03-13T04:37:32.183Z,1016.53
2017-03-13T04:38:42.883Z,1016.5
2017-03-13T04:39:53.575Z,1016.49
2017-03-13T04:41:03.669Z,1016.47
2017-03-13T04:42:13.999Z,1016.49
2017-03-13T04:43:24.275Z,1016.5
2017-03-13T04:44:34.179Z,1016.55
2017-03-13T04:45:44.093Z,1016.5
2017-03-13T04:46:54.158Z,1016.56
2017-03-13T04:48:04.815Z,1016.5
2017-03-13T04:49:14.718Z,1016.53
2017-03-13T04:50:24.995Z,1016.55
2017-03-13T04:51:34.910Z,1016.54
2017-03-13T04:52:45.711Z,1016.56
2017-03-13T04:53:56.364Z,1016.58
2017-03-13T04:55:06.654Z,1016.63
2017-03-13T04:56:17.325Z,1016.64
2017-03-13T04:57:27.229Z,1016.69
2017-03-13T04:58:38.042Z,1016.68
2017-03-13T04:59:47.925Z,1016.7
2017-03-13T05:00:57.839Z,1016.73
2017-03-13T05:02:07.780Z,1016.71
2017-03-13T05:03:18.435Z,1016.72
2017-03-13T05:04:29.105Z,1016.7
2017-03-13T05:05:38.980Z,1016.71
2017-03-13T05:06:49.273Z,1016.74
2017-03-13T05:07:59.932Z,1016.75
2017-03-13T05:09:10.205Z,1016.79
2017-03-13T05:10:20.239Z,1016.8
2017-03-13T05:11:30.163Z,1016.84
2017-03-13T05:12:40.857Z,1016.85
2017-03-13T05:13:50.748Z,1016.86
2017-03-13T05:15:01.434Z,1016.83
2017-03-13T05:16:10.705Z,1016.85
2017-03-13T05:17:21.403Z,1016.79
2017-03-13T05:18:32.095Z,1016.81
2017-03-13T05:19:42.764Z,1016.8
2017-03-13T05:20:53.457Z,1016.81
2017-03-13T05:22:03.912Z,1016.83
2017-03-13T05:23:13.796Z,1016.86
2017-03-13T05:24:24.120Z,1016.82
2017-03-13T05:25:34.799Z,1016.81
2017-03-13T05:26:45.484Z,1016.82
2017-03-13T05:27:55.896Z,1016.79
2017-03-13T05:29:06.598Z,1016.78
2017-03-13T05:30:17.312Z,1016.83
2017-03-13T05:31:27.600Z,1016.84
2017-03-13T05:32:38.287Z,1016.89
2017-03-13T05:33:47.980Z,1016.9
2017-03-13T05:34:58.692Z,1016.91
2017-03-13T05:36:09.367Z,1016.92
2017-03-13T05:37:19.967Z,1016.91
2017-03-13T05:38:30.265Z,1016.95
2017-03-13T05:39:40.791Z,1016.97
2017-03-13T05:40:50.699Z,1016.95
2017-03-13T05:42:01.009Z,1016.99
2017-03-13T05:43:10.924Z,1017
2017-03-13T05:44:21.623Z,1016.99
2017-03-13T05:45:32.854Z,1017.04
2017-03-13T05:46:42.400Z,1017.04
2017-03-13T05:47:52.322Z,1017.11
2017-03-13T05:49:02.246Z,1017.11
2017-03-13T05:50:12.562Z,1017.14
2017-03-13T05:51:23.003Z,1017.11
2017-03-13T05:52:33.684Z,1017.11
2017-03-13T05:53:43.992Z,1017.15
2017-03-13T05:54:53.567Z,1017.09
2017-03-13T05:56:03.506Z,1017.17
2017-03-13T05:57:13.599Z,1017.22
2017-03-13T05:58:24.278Z,1017.24
2017-03-13T05:59:34.186Z,1017.25
2017-03-13T06:00:44.489Z,1017.26
2017-03-13T06:01:54.835Z,1017.27
2017-03-13T06:03:05.265Z,1017.25
2017-03-13T06:04:15.575Z,1017.27
2017-03-13T06:05:25.486Z,1017.29
2017-03-13T06:06:36.135Z,1017.25
2017-03-13T06:07:46.464Z,1017.25
2017-03-13T06:08:56.908Z,1017.31
2017-03-13T06:10:06.842Z,1017.29
2017-03-13T06:11:17.555Z,1017.32
2017-03-13T06:12:28.210Z,1017.31
2017-03-13T06:13:38.530Z,1017.35
2017-03-13T06:14:49.360Z,1017.33
2017-03-13T06:15:59.728Z,1017.36
2017-03-13T06:17:10.060Z,1017.37
2017-03-13T06:18:20.370Z,1017.33
2017-03-13T06:19:31.067Z,1017.34
2017-03-13T06:20:41.658Z,1017.35
2017-03-13T06:21:51.592Z,1017.33
2017-03-13T06:23:01.898Z,1017.34
2017-03-13T06:24:12.583Z,1017.37
2017-03-13T06:25:23.326Z,1017.39
2017-03-13T06:26:33.903Z,1017.43
2017-03-13T06:27:44.671Z,1017.42
2017-03-13T06:28:55.373Z,1017.41
2017-03-13T06:30:06.060Z,1017.4
2017-03-13T06:31:16.367Z,1017.38
2017-03-13T06:32:27.344Z,1017.38
2017-03-13T06:33:37.619Z,1017.43
2017-03-13T06:34:48.310Z,1017.43
2017-03-13T06:35:58.600Z,1017.51
2017-03-13T06:37:08.873Z,1017.55
2017-03-13T06:38:19.698Z,1017.54
2017-03-13T06:39:29.598Z,1017.55
2017-03-13T06:40:39.496Z,1017.55
2017-03-13T06:41:49.767Z,1017.56
2017-03-13T06:42:59.651Z,1017.57
2017-03-13T06:44:10.476Z,1017.56
2017-03-13T06:45:20.778Z,1017.58
2017-03-13T06:46:31.450Z,1017.6
2017-03-13T06:47:41.760Z,1017.63
2017-03-13T06:48:52.085Z,1017.65
2017-03-13T06:50:02.124Z,1017.69
2017-03-13T06:51:12.398Z,1017.74
2017-03-13T06:52:22.700Z,1017.73
2017-03-13T06:53:32.986Z,1017.8
2017-03-13T06:54:43.282Z,1017.75
2017-03-13T06:55:53.716Z,1017.79
2017-03-13T06:57:04.419Z,1017.78
2017-03-13T06:58:15.087Z,1017.77
2017-03-13T06:59:25.067Z,1017.79
2017-03-13T07:00:35.001Z,1017.77
2017-03-13T07:01:45.811Z,1017.81
2017-03-13T07:02:56.479Z,1017.78
2017-03-13T07:04:06.766Z,1017.78
2017-03-13T07:05:17.435Z,1017.8
2017-03-13T07:06:27.704Z,1017.83
2017-03-13T07:07:38.234Z,1017.81
2017-03-13T07:08:48.119Z,1017.79
2017-03-13T07:09:58.405Z,1017.75
2017-03-13T07:11:09.092Z,1017.78
2017-03-13T07:12:19.771Z,1017.82
2017-03-13T07:13:30.156Z,1017.84
2017-03-13T07:14:40.062Z,1017.86
2017-03-13T07:15:49.566Z,1017.88
2017-03-13T07:16:59.869Z,1017.89
2017-03-13T07:18:10.530Z,1017.96
2017-03-13T07:19:21.310Z,1017.9
2017-03-13T07:20:31.970Z,1017.92
2017-03-13T07:21:42.243Z,1017.97
2017-03-13T07:22:52.534Z,1018
2017-03-13T07:24:02.422Z,1018.04
2017-03-13T07:25:13.222Z,1018.11
2017-03-13T07:26:23.509Z,1018.14
2017-03-13T07:27:32.641Z,1018.16
2017-03-13T07:28:42.931Z,1018.22
2017-03-13T07:29:53.166Z,1018.22
2017-03-13T07:31:04.243Z,1018.23
2017-03-13T07:32:14.906Z,1018.19
2017-03-13T07:33:24.405Z,1018.16
2017-03-13T07:34:35.092Z,1018.14
2017-03-13T07:35:45.636Z,1018.16
2017-03-13T07:36:56.014Z,1018.17
2017-03-13T07:38:06.286Z,1018.17
2017-03-13T07:39:16.999Z,1018.21
2017-03-13T07:40:27.657Z,1018.22
2017-03-13T07:41:37.959Z,1018.22
2017-03-13T07:42:48.794Z,1018.25
2017-03-13T07:43:59.085Z,1018.26
2017-03-13T07:45:08.989Z,1018.23
2017-03-13T07:46:18.908Z,1018.27
2017-03-13T07:47:29.628Z,1018.26
2017-03-13T07:48:40.100Z,1018.25
2017-03-13T07:49:50.379Z,1018.32
2017-03-13T07:51:00.265Z,1018.28
2017-03-13T07:52:10.561Z,1018.26
2017-03-13T07:53:21.243Z,1018.21
2017-03-13T07:54:31.301Z,1018.17
2017-03-13T07:55:41.980Z,1018.21
2017-03-13T07:56:52.158Z,1018.23
2017-03-13T07:58:02.456Z,1018.23
2017-03-13T07:59:12.750Z,1018.2
2017-03-13T08:00:23.201Z,1018.19
2017-03-13T08:01:33.922Z,1018.23
2017-03-13T08:02:43.429Z,1018.22
2017-03-13T08:03:54.140Z,1018.31
2017-03-13T08:05:04.839Z,1018.37
2017-03-13T08:06:15.297Z,1018.46
2017-03-13T08:07:25.979Z,1018.44
2017-03-13T08:08:35.493Z,1018.47
2017-03-13T08:09:45.374Z,1018.47
2017-03-13T08:10:55.650Z,1018.46
2017-03-13T08:12:06.469Z,1018.52
2017-03-13T08:13:17.134Z,1018.5
2017-03-13T08:14:27.428Z,1018.55
2017-03-13T08:15:37.698Z,1018.57
2017-03-13T08:16:47.579Z,1018.6
2017-03-13T08:17:58.014Z,1018.61
2017-03-13T08:19:08.314Z,1018.63
2017-03-13T08:20:18.197Z,1018.63
2017-03-13T08:21:27.673Z,1018.7
2017-03-13T08:22:38.349Z,1018.7
2017-03-13T08:23:48.442Z,1018.71
2017-03-13T08:24:59.145Z,1018.72
2017-03-13T08:26:09.827Z,1018.75
2017-03-13T08:27:19.348Z,1018.66
2017-03-13T08:28:29.617Z,1018.66
2017-03-13T08:29:39.673Z,1018.69
2017-03-13T08:30:49.977Z,1018.71
2017-03-13T08:32:00.264Z,1018.71
2017-03-13T08:33:10.171Z,1018.71
2017-03-13T08:34:20.501Z,1018.72
2017-03-13T08:35:30.574Z,1018.75
2017-03-13T08:36:41.247Z,1018.8
2017-03-13T08:37:51.527Z,1018.82
2017-03-13T08:39:01.446Z,1018.88
2017-03-13T08:40:11.741Z,1018.96
2017-03-13T08:41:21.812Z,1019.04
2017-03-13T08:42:32.099Z,1019.01
2017-03-13T08:43:42.388Z,1019.07
2017-03-13T08:44:52.666Z,1019.07
2017-03-13T08:46:02.565Z,1019.09
2017-03-13T08:47:13.382Z,1019.14
2017-03-13T08:48:23.641Z,1019.12
2017-03-13T08:49:33.545Z,1019.12
2017-03-13T08:50:43.439Z,1019.2
2017-03-13T08:51:53.345Z,1019.2
2017-03-13T08:53:03.410Z,1019.25
2017-03-13T08:54:14.118Z,1019.36
2017-03-13T08:55:24.017Z,1019.38
2017-03-13T08:56:34.315Z,1019.43
2017-03-13T08:57:44.598Z,1019.47
2017-03-13T08:58:55.428Z,1019.53
2017-03-13T09:00:06.126Z,1019.58
2017-03-13T09:01:16.785Z,1019.67
2017-03-13T09:02:27.463Z,1019.66
2017-03-13T09:03:37.766Z,1019.74
2017-03-13T09:04:47.815Z,1019.73
2017-03-13T09:05:57.716Z,1019.75
2017-03-13T09:07:08.006Z,1019.73
2017-03-13T09:08:17.897Z,1019.75
2017-03-13T09:09:28.193Z,1019.78
2017-03-13T09:10:39.027Z,1019.79
2017-03-13T09:11:48.175Z,1019.83
2017-03-13T09:12:58.061Z,1019.87
2017-03-13T09:14:08.335Z,1019.86
2017-03-13T09:15:17.859Z,1019.89
2017-03-13T09:16:27.895Z,1019.91
2017-03-13T09:17:37.802Z,1019.91
2017-03-13T09:18:48.471Z,1019.87
2017-03-13T09:19:59.129Z,1019.84
2017-03-13T09:21:09.030Z,1019.79
2017-03-13T09:22:19.461Z,1019.71
2017-03-13T09:23:28.980Z,1019.77
2017-03-13T09:24:39.272Z,1019.85
2017-03-13T09:25:49.176Z,1019.89
2017-03-13T09:26:59.851Z,1019.9
2017-03-13T09:28:10.330Z,1019.92
2017-03-13T09:29:21.013Z,1019.88
2017-03-13T09:30:31.717Z,1019.84
2017-03-13T09:31:42.024Z,1019.83
2017-03-13T09:32:52.343Z,1019.79
2017-03-13T09:34:02.897Z,1019.76
2017-03-13T09:35:13.554Z,1019.73
2017-03-13T09:36:23.433Z,1019.71
2017-03-13T09:37:33.727Z,1019.69
2017-03-13T09:38:44.396Z,1019.76
2017-03-13T09:39:54.865Z,1019.74
2017-03-13T09:41:05.155Z,1019.8
2017-03-13T09:42:15.445Z,1019.8
2017-03-13T09:43:26.118Z,1019.73
2017-03-13T09:44:36.402Z,1019.69
2017-03-13T09:45:47.219Z,1019.66
2017-03-13T09:46:57.501Z,1019.66
2017-03-13T09:48:07.783Z,1019.7
2017-03-13T09:49:17.730Z,1019.68
2017-03-13T09:50:28.014Z,1019.66
2017-03-13T09:51:38.044Z,1019.66
2017-03-13T09:52:48.346Z,1019.71
2017-03-13T09:53:58.652Z,1019.72
2017-03-13T09:55:08.920Z,1019.8
2017-03-13T09:56:19.597Z,1019.81
2017-03-13T09:57:30.033Z,1019.81
2017-03-13T09:58:39.958Z,1019.82
2017-03-13T09:59:50.644Z,1019.83
2017-03-13T10:01:00.944Z,1019.85
2017-03-13T10:02:10.815Z,1019.88
2017-03-13T10:03:21.662Z,1019.93
2017-03-13T10:04:31.943Z,1019.96
2017-03-13T10:05:42.601Z,1019.94
2017-03-13T10:06:52.891Z,1019.99
2017-03-13T10:08:02.781Z,1019.98
2017-03-13T10:09:12.830Z,1019.97
2017-03-13T10:10:23.157Z,1019.98
2017-03-13T10:11:33.069Z,1020.01
2017-03-13T10:12:43.354Z,1020.01
2017-03-13T10:13:54.067Z,1019.99
2017-03-13T10:15:04.514Z,1019.99
2017-03-13T10:16:14.797Z,1019.97
2017-03-13T10:17:25.096Z,1020
2017-03-13T10:18:35.410Z,1020.02
2017-03-13T10:19:45.325Z,1020
2017-03-13T10:20:55.756Z,1020.05
2017-03-13T10:22:06.048Z,1020.06
2017-03-13T10:23:16.327Z,1020.08
2017-03-13T10:24:26.242Z,1020.08
2017-03-13T10:25:35.766Z,1020.02
2017-03-13T10:26:46.188Z,1020.02
2017-03-13T10:27:56.483Z,1019.97
2017-03-13T10:29:06.765Z,1019.97
2017-03-13T10:30:17.440Z,1019.98
2017-03-13T10:31:27.349Z,1019.94
2017-03-13T10:32:37.777Z,1019.98
2017-03-13T10:33:48.467Z,1019.99
2017-03-13T10:34:59.153Z,1019.98
2017-03-13T10:36:09.438Z,1020
2017-03-13T10:37:19.729Z,1020.02
2017-03-13T10:38:29.788Z,1019.97
2017-03-13T10:39:40.469Z,1019.98
2017-03-13T10:40:50.776Z,1019.99
2017-03-13T10:42:01.066Z,1019.98
2017-03-13T10:43:11.789Z,1019.98
2017-03-13T10:44:21.835Z,1019.94
2017-03-13T10:45:32.524Z,1019.91
2017-03-13T10:46:42.807Z,1019.92
2017-03-13T10:47:52.703Z,1019.93
2017-03-13T10:49:03.379Z,1019.85
2017-03-13T10:50:14.186Z,1019.82
2017-03-13T10:51:24.478Z,1019.8
2017-03-13T10:52:34.415Z,1019.77
2017-03-13T10:53:44.722Z,1019.75
2017-03-13T10:54:55.408Z,1019.73
2017-03-13T10:56:06.240Z,1019.72
2017-03-13T10:57:16.544Z,1019.74
2017-03-13T10:58:27.222Z,1019.71
2017-03-13T10:59:37.548Z,1019.77
2017-03-13T11:00:48.229Z,1019.81
2017-03-13T11:01:58.284Z,1019.89
2017-03-13T11:03:08.194Z,1019.93
2017-03-13T11:04:18.495Z,1019.97
2017-03-13T11:05:29.165Z,1020
2017-03-13T11:06:39.483Z,1020.02
2017-03-13T11:07:49.938Z,1019.99
2017-03-13T11:09:00.230Z,1020.06
2017-03-13T11:10:10.541Z,1020.07
2017-03-13T11:11:20.439Z,1020.08
2017-03-13T11:12:31.123Z,1020.09
2017-03-13T11:13:41.950Z,1020.12
2017-03-13T11:14:52.204Z,1020.16
2017-03-13T11:16:02.864Z,1020.17
2017-03-13T11:17:12.758Z,1020.17
2017-03-13T11:18:23.031Z,1020.13
2017-03-13T11:19:33.061Z,1020.13
2017-03-13T11:20:43.347Z,1020.18
2017-03-13T11:21:54.042Z,1020.14
2017-03-13T11:23:04.342Z,1020.2
2017-03-13T11:24:14.254Z,1020.23
2017-03-13T11:25:25.112Z,1020.26
2017-03-13T11:26:35.791Z,1020.26
2017-03-13T11:27:46.466Z,1020.31
2017-03-13T11:28:57.366Z,1020.35
2017-03-13T11:30:08.051Z,1020.38
2017-03-13T11:31:18.185Z,1020.42
2017-03-13T11:32:28.863Z,1020.47
2017-03-13T11:33:38.795Z,1020.49
2017-03-13T11:34:49.454Z,1020.48
2017-03-13T11:36:00.145Z,1020.46
2017-03-13T11:37:10.373Z,1020.46
2017-03-13T11:38:20.253Z,1020.47
2017-03-13T11:39:30.530Z,1020.42
2017-03-13T11:40:41.222Z,1020.44
2017-03-13T11:41:51.514Z,1020.45
2017-03-13T11:43:01.966Z,1020.44
2017-03-13T11:44:12.639Z,1020.45
2017-03-13T11:45:23.316Z,1020.43
2017-03-13T11:46:33.599Z,1020.38
2017-03-13T11:47:43.869Z,1020.32
2017-03-13T11:48:54.319Z,1020.24
2017-03-13T11:50:05.007Z,1020.19
2017-03-13T11:51:15.372Z,1020.13
2017-03-13T11:52:26.028Z,1020.17
2017-03-13T11:53:36.319Z,1020.15
2017-03-13T11:54:46.780Z,1020.22
2017-03-13T11:55:56.697Z,1020.27
2017-03-13T11:57:06.614Z,1020.28
2017-03-13T11:58:16.954Z,1020.28
2017-03-13T11:59:27.241Z,1020.38
2017-03-13T12:00:36.518Z,1020.36
2017-03-13T12:01:47.176Z,1020.39
2017-03-13T12:02:57.524Z,1020.45
2017-03-13T12:04:07.809Z,1020.49
2017-03-13T12:05:18.131Z,1020.56
2017-03-13T12:06:28.530Z,1020.53
2017-03-13T12:07:39.210Z,1020.57
2017-03-13T12:08:49.530Z,1020.56
2017-03-13T12:09:59.040Z,1020.57
2017-03-13T12:11:09.752Z,1020.59
2017-03-13T12:12:20.538Z,1020.59
2017-03-13T12:13:30.829Z,1020.6
2017-03-13T12:14:41.514Z,1020.58
2017-03-13T12:15:51.808Z,1020.57
2017-03-13T12:17:02.463Z,1020.57
2017-03-13T12:18:12.854Z,1020.62
2017-03-13T12:19:23.509Z,1020.62
2017-03-13T12:20:34.179Z,1020.62
2017-03-13T12:21:44.495Z,1020.62
2017-03-13T12:22:54.022Z,1020.6
2017-03-13T12:24:04.032Z,1020.58
2017-03-13T12:25:13.900Z,1020.6
2017-03-13T12:26:24.203Z,1020.56
2017-03-13T12:27:33.748Z,1020.57
2017-03-13T12:28:44.435Z,1020.57
2017-03-13T12:29:55.204Z,1020.6
2017-03-13T12:31:05.160Z,1020.6
2017-03-13T12:32:15.481Z,1020.62
2017-03-13T12:33:26.153Z,1020.65
2017-03-13T12:34:36.434Z,1020.64
2017-03-13T12:35:46.516Z,1020.6
2017-03-13T12:36:57.209Z,1020.62
2017-03-13T12:38:06.712Z,1020.59
2017-03-13T12:39:17.474Z,1020.6
2017-03-13T12:40:27.387Z,1020.62
2017-03-13T12:41:37.445Z,1020.57
2017-03-13T12:42:47.745Z,1020.57
2017-03-13T12:43:58.036Z,1020.59
2017-03-13T12:45:08.335Z,1020.61
2017-03-13T12:46:18.242Z,1020.55
2017-03-13T12:47:28.671Z,1020.57
2017-03-13T12:48:39.386Z,1020.63
2017-03-13T12:49:49.669Z,1020.59
2017-03-13T12:50:59.181Z,1020.63
